Time;durP1;ratioP1;P1;durP2;ratioP2;P2;SDS_P1;SDS_P2;PMS_P1;PMS_P2;Temp;Humidity;BMP_temperature;BMP_pressure;BME280_temperature;BME280_humidity;BME280_pressure;Samples;Min_cycle;Max_cycle;Signal;HPM_P1;HPM_P2
2023/08/13 00:02:23;;;;;;;6.65;3.30;;;;;;;12.57;56.95;97813.44;6259590;28;20589;-68
2023/08/13 00:05:28;;;;;;;7.65;3.38;;;;;;;12.49;57.02;97818.31;6255591;28;20057;-68
2023/08/13 00:08:32;;;;;;;10.13;3.60;;;;;;;12.42;57.19;97819.59;6241228;28;20128;-68
2023/08/13 00:11:38;;;;;;;7.88;3.65;;;;;;;12.36;57.50;97826.06;6259461;28;20135;-68
2023/08/13 00:14:43;;;;;;;9.10;3.63;;;;;;;12.29;57.86;97821.25;6256709;28;20535;-68
2023/08/13 00:17:47;;;;;;;4.53;2.80;;;;;;;12.21;58.05;97826.94;6259132;28;20044;-68
2023/08/13 00:20:52;;;;;;;5.45;3.20;;;;;;;12.12;58.30;97817.75;6263063;28;20037;-68
2023/08/13 00:23:57;;;;;;;4.95;2.72;;;;;;;12.08;58.65;97821.50;6260605;28;20139;-68
2023/08/13 00:27:01;;;;;;;3.97;2.90;;;;;;;12.02;58.94;97816.56;6260643;28;20060;-68
2023/08/13 00:30:06;;;;;;;4.65;2.63;;;;;;;11.94;58.95;97818.78;6238381;28;20131;-68
2023/08/13 00:33:11;;;;;;;4.10;2.60;;;;;;;11.79;59.13;97820.44;6262262;28;20034;-68
2023/08/13 00:36:15;;;;;;;4.97;2.53;;;;;;;11.73;59.65;97830.47;6256233;28;20041;-68
2023/08/13 00:39:19;;;;;;;5.40;2.67;;;;;;;11.68;59.92;97828.94;6260800;28;20041;-69
2023/08/13 00:42:24;;;;;;;5.88;2.42;;;;;;;11.67;59.86;97827.22;6259635;28;20041;-69
2023/08/13 00:45:31;;;;;;;6.82;3.08;;;;;;;11.63;60.06;97825.72;6258782;28;20135;-67
2023/08/13 00:48:39;;;;;;;7.57;2.72;;;;;;;11.66;60.33;97836.09;6256226;28;20033;-67
2023/08/13 00:51:44;;;;;;;5.97;2.58;;;;;;;11.67;60.16;97835.13;6256524;28;20171;-67
2023/08/13 00:54:49;;;;;;;4.18;2.90;;;;;;;11.75;60.23;97844.41;6255051;28;20375;-67
2023/08/13 00:57:55;;;;;;;4.38;2.67;;;;;;;11.72;60.21;97855.13;6256631;28;20182;-69
2023/08/13 01:01:01;;;;;;;4.90;2.75;;;;;;;11.74;60.08;97853.25;6261088;28;20128;-68
2023/08/13 01:04:04;;;;;;;6.72;2.80;;;;;;;11.76;60.10;97851.41;6261658;28;20040;-68
2023/08/13 01:07:22;;;;;;;5.72;2.83;;;;;;;11.76;60.47;97856.69;6259005;28;20494;-69
2023/08/13 01:10:35;;;;;;;6.15;2.50;;;;;;;11.69;60.32;97846.47;6238043;28;20041;-69
2023/08/13 01:13:45;;;;;;;6.25;2.53;;;;;;;11.63;60.37;97857.34;6256303;28;20122;-69
2023/08/13 01:16:50;;;;;;;4.45;2.20;;;;;;;11.72;60.49;97857.75;6256374;28;20034;-68
2023/08/13 01:19:55;;;;;;;6.47;2.45;;;;;;;11.72;60.12;97852.47;6259467;28;20660;-68
2023/08/13 01:23:00;;;;;;;5.55;2.83;;;;;;;11.73;60.05;97854.22;6259975;28;20182;-68
2023/08/13 01:26:18;;;;;;;5.15;2.83;;;;;;;11.78;60.19;97849.53;6261339;28;20047;-68
2023/08/13 01:29:44;;;;;;;5.45;3.03;;;;;;;11.80;60.06;97845.00;6256844;28;20175;-68
2023/08/13 01:33:03;;;;;;;6.78;3.33;;;;;;;11.81;60.13;97846.75;6239639;28;20041;-68
2023/08/13 01:36:09;;;;;;;6.07;2.45;;;;;;;11.83;59.67;97844.84;6258393;28;20039;-67
2023/08/13 01:39:14;;;;;;;6.90;2.53;;;;;;;11.83;59.88;97842.22;6254768;28;20041;-67
2023/08/13 01:42:17;;;;;;;5.88;2.50;;;;;;;11.90;59.79;97854.19;6262213;28;20053;-68
2023/08/13 01:45:22;;;;;;;3.92;2.10;;;;;;;11.97;59.79;97854.69;6260270;28;20408;-67
2023/08/13 01:48:27;;;;;;;5.90;2.50;;;;;;;12.05;59.60;97853.31;6261336;28;20122;-68
2023/08/13 01:51:33;;;;;;;5.00;2.50;;;;;;;12.11;59.29;97839.78;6257258;28;20041;-68
2023/08/13 01:54:36;;;;;;;8.25;2.95;;;;;;;12.22;59.08;97843.63;6259212;28;20303;-68
2023/08/13 01:57:44;;;;;;;7.03;3.20;;;;;;;12.30;59.23;97851.97;6254954;28;20052;-68
2023/08/13 02:00:48;;;;;;;7.75;2.75;;;;;;;12.39;59.00;97856.72;6259394;28;20045;-68
2023/08/13 02:03:53;;;;;;;3.90;2.40;;;;;;;12.48;58.89;97861.50;6255718;28;20053;-68
2023/08/13 02:06:58;;;;;;;8.18;2.55;;;;;;;12.55;58.90;97865.47;6259628;28;20045;-68
2023/08/13 02:10:04;;;;;;;9.80;2.70;;;;;;;12.61;58.76;97860.78;6260956;28;20037;-68
2023/08/13 02:13:09;;;;;;;4.55;2.60;;;;;;;12.65;58.56;97857.03;6258453;28;20658;-68
2023/08/13 02:16:15;;;;;;;10.85;2.78;;;;;;;12.74;58.44;97859.16;6255859;28;20048;-67
2023/08/13 02:19:19;;;;;;;3.33;2.30;;;;;;;12.83;58.22;97866.53;6252335;28;20044;-66
2023/08/13 02:22:24;;;;;;;5.05;2.20;;;;;;;12.92;58.11;97855.44;6259927;28;20056;-68
2023/08/13 02:25:29;;;;;;;3.95;2.17;;;;;;;13.04;57.89;97861.78;6263660;28;20044;-67
2023/08/13 02:28:35;;;;;;;2.78;2.17;;;;;;;13.19;57.78;97862.66;6240864;28;20460;-67
2023/08/13 02:31:39;;;;;;;3.25;2.35;;;;;;;13.34;57.39;97860.94;6235840;28;20517;-68
2023/08/13 02:34:47;;;;;;;4.60;2.10;;;;;;;13.44;57.26;97859.41;6233819;28;20084;-68
2023/08/13 02:37:51;;;;;;;5.07;2.10;;;;;;;13.54;57.11;97857.09;6230743;28;20255;-67
2023/08/13 02:40:56;;;;;;;4.95;2.20;;;;;;;13.68;56.69;97854.44;6233888;28;20041;-68
2023/08/13 02:44:01;;;;;;;5.13;2.17;;;;;;;13.77;56.33;97864.44;6242881;28;20072;-67
2023/08/13 02:47:08;;;;;;;3.05;2.10;;;;;;;13.90;55.65;97860.09;6236972;28;20041;-68
2023/08/13 02:50:11;;;;;;;6.75;2.20;;;;;;;14.03;55.28;97862.81;6241327;28;20131;-67
2023/08/13 02:53:17;;;;;;;4.93;2.40;;;;;;;14.13;55.06;97856.00;6237297;28;20497;-68
2023/08/13 02:56:21;;;;;;;6.28;2.13;;;;;;;14.25;54.60;97856.16;6242482;28;20423;-68
2023/08/13 02:59:27;;;;;;;7.47;2.97;;;;;;;14.34;54.31;97859.06;6234798;28;20058;-67
2023/08/13 03:02:30;;;;;;;5.82;3.17;;;;;;;14.47;53.96;97853.84;6218412;28;20091;-67
2023/08/13 03:05:36;;;;;;;6.70;3.03;;;;;;;14.59;53.51;97857.50;6238180;28;20029;-67
2023/08/13 03:08:41;;;;;;;7.35;3.30;;;;;;;14.68;52.88;97862.19;6238005;28;20129;-68
2023/08/13 03:11:46;;;;;;;8.23;3.95;;;;;;;14.73;52.90;97860.09;6238944;28;20042;-67
2023/08/13 03:14:51;;;;;;;10.13;4.38;;;;;;;14.87;52.35;97853.03;6239908;28;20420;-68
2023/08/13 03:17:57;;;;;;;10.45;5.13;;;;;;;14.99;52.03;97866.31;6232930;28;20111;-68
2023/08/13 03:21:01;;;;;;;15.50;5.20;;;;;;;15.02;51.96;97859.97;6235289;28;20504;-69
2023/08/13 03:24:05;;;;;;;13.98;6.05;;;;;;;15.09;51.10;97866.56;6238021;28;20049;-68
2023/08/13 03:27:10;;;;;;;20.95;7.63;;;;;;;15.12;50.73;97863.69;6223202;28;20045;-67
2023/08/13 03:30:16;;;;;;;18.65;8.13;;;;;;;15.16;50.67;97857.22;6235171;28;20128;-68
2023/08/13 03:33:21;;;;;;;18.83;7.68;;;;;;;15.18;50.30;97854.47;6237336;28;20136;-68
2023/08/13 03:36:28;;;;;;;14.80;8.48;;;;;;;15.22;49.79;97850.66;6235668;28;20495;-68
2023/08/13 03:39:33;;;;;;;25.10;8.63;;;;;;;15.39;49.12;97857.47;6235819;28;20496;-67
2023/08/13 03:42:37;;;;;;;20.65;6.50;;;;;;;15.43;49.03;97854.50;6234106;28;20141;-68
2023/08/13 03:45:43;;;;;;;21.05;7.00;;;;;;;15.52;48.34;97858.31;6232634;28;20120;-67
2023/08/13 03:48:47;;;;;;;23.08;7.63;;;;;;;15.62;48.20;97864.66;6239506;28;20464;-69
2023/08/13 03:51:53;;;;;;;12.68;6.03;;;;;;;15.73;47.97;97865.75;6236573;28;20086;-68
2023/08/13 03:54:57;;;;;;;18.02;6.55;;;;;;;15.82;48.02;97870.41;6238666;28;20133;-66
2023/08/13 03:58:01;;;;;;;10.43;4.75;;;;;;;15.88;47.87;97856.72;6234269;28;20049;-68
2023/08/13 04:01:07;;;;;;;16.48;4.90;;;;;;;16.05;46.72;97867.00;6231872;28;20132;-68
2023/08/13 04:04:12;;;;;;;14.77;4.85;;;;;;;16.17;46.25;97865.28;6236504;28;20034;-68
2023/08/13 04:07:17;;;;;;;13.85;4.93;;;;;;;16.15;46.19;97872.50;6237031;28;20087;-67
2023/08/13 04:10:22;;;;;;;14.27;5.35;;;;;;;16.23;46.36;97874.63;6239717;28;20136;-67
2023/08/13 04:13:26;;;;;;;16.30;4.90;;;;;;;16.31;45.87;97874.91;6236161;28;20132;-67
2023/08/13 04:16:31;;;;;;;13.63;4.78;;;;;;;16.48;45.12;97874.53;6239370;28;20132;-67
2023/08/13 04:19:36;;;;;;;13.02;4.88;;;;;;;16.53;44.57;97872.41;6239325;28;20132;-68
2023/08/13 04:22:41;;;;;;;7.95;3.97;;;;;;;16.60;44.12;97878.94;6224056;28;20115;-68
2023/08/13 04:25:46;;;;;;;14.02;3.97;;;;;;;16.65;43.87;97878.63;6238406;28;20183;-66
2023/08/13 04:28:50;;;;;;;11.10;4.22;;;;;;;16.74;43.78;97875.28;6254641;28;20037;-67
2023/08/13 04:31:55;;;;;;;11.77;4.03;;;;;;;16.88;43.48;97874.28;6256618;28;20526;-69
2023/08/13 04:35:00;;;;;;;13.80;4.18;;;;;;;17.03;43.03;97885.56;6251775;28;20087;-68
2023/08/13 04:38:06;;;;;;;16.17;3.70;;;;;;;17.11;42.82;97880.53;6242515;28;20578;-66
2023/08/13 04:41:11;;;;;;;13.48;3.25;;;;;;;17.24;42.30;97880.47;6236357;28;20087;-67
2023/08/13 04:44:16;;;;;;;18.35;3.50;;;;;;;17.38;41.23;97885.59;6256377;28;20576;-68
2023/08/13 04:47:21;;;;;;;10.02;3.05;;;;;;;17.40;41.22;97880.13;6256795;28;20132;-68
2023/08/13 04:50:26;;;;;;;10.65;2.75;;;;;;;17.49;40.86;97880.28;6252199;28;20132;-68
2023/08/13 04:53:31;;;;;;;6.68;2.55;;;;;;;17.69;40.83;97877.88;6261470;28;20040;-67
2023/08/13 04:56:36;;;;;;;7.75;2.75;;;;;;;19.63;37.78;97884.34;6257279;28;20099;-68
2023/08/13 04:59:40;;;;;;;8.75;2.40;;;;;;;24.55;30.55;97893.66;6243525;28;20094;-70
2023/08/13 05:02:44;;;;;;;8.55;2.03;;;;;;;28.95;25.31;97898.91;6246072;28;20127;-72
2023/08/13 05:05:48;;;;;;;4.88;2.03;;;;;;;32.18;21.26;97907.31;6258852;28;20136;-67
2023/08/13 05:08:53;;;;;;;4.15;1.83;;;;;;;34.61;19.15;97899.94;6257547;28;20118;-72
2023/08/13 05:11:58;;;;;;;4.55;1.48;;;;;;;36.84;16.84;97902.28;6252403;28;20115;-70
2023/08/13 05:15:03;;;;;;;4.82;2.05;;;;;;;38.51;15.62;97899.16;6252430;28;20131;-69
2023/08/13 05:18:08;;;;;;;3.85;1.45;;;;;;;39.90;14.05;97902.34;6256646;28;20041;-70
2023/08/13 05:21:12;;;;;;;4.27;1.57;;;;;;;40.95;13.00;97899.66;6258837;28;20128;-70
2023/08/13 05:24:18;;;;;;;4.63;1.55;;;;;;;41.31;12.36;97902.56;6252513;28;20128;-68
2023/08/13 05:27:21;;;;;;;4.50;1.65;;;;;;;41.18;12.31;97903.06;6255686;28;20056;-68
2023/08/13 05:30:26;;;;;;;3.47;1.98;;;;;;;41.47;11.82;97895.97;6257011;28;20132;-67
2023/08/13 05:33:34;;;;;;;3.53;1.20;;;;;;;42.55;11.17;97893.97;6257858;28;20323;-67
2023/08/13 05:36:38;;;;;;;2.80;1.45;;;;;;;43.08;11.09;97890.69;6255884;28;20136;-69
2023/08/13 05:39:42;;;;;;;3.72;1.23;;;;;;;43.95;10.27;97892.91;6252797;28;20467;-68
2023/08/13 05:42:47;;;;;;;3.22;1.42;;;;;;;44.22;10.30;97886.81;6249378;28;20079;-69
2023/08/13 05:45:52;;;;;;;5.15;2.22;;;;;;;45.10;10.05;97883.81;6256837;28;20337;-68
2023/08/13 05:48:58;;;;;;;3.22;1.23;;;;;;;45.26;9.41;97882.50;6240692;28;20079;-68
2023/08/13 05:52:02;;;;;;;3.78;1.30;;;;;;;44.16;9.86;97874.09;6242560;28;20033;-68
2023/08/13 05:55:06;;;;;;;5.18;1.70;;;;;;;43.05;10.47;97869.13;6254075;28;20123;-68
2023/08/13 05:58:11;;;;;;;4.50;1.35;;;;;;;43.11;10.68;97861.59;6251131;28;20041;-68
2023/08/13 06:01:16;;;;;;;5.75;1.40;;;;;;;44.56;9.73;97860.91;6251574;28;20072;-68
2023/08/13 06:04:21;;;;;;;3.65;1.52;;;;;;;45.90;9.17;97858.72;6261066;28;20061;-68
2023/08/13 06:07:25;;;;;;;4.65;1.38;;;;;;;46.76;8.65;97851.78;6262112;28;20091;-69
2023/08/13 06:10:29;;;;;;;4.47;1.25;;;;;;;47.21;8.50;97847.16;6251502;28;20052;-68
2023/08/13 06:13:38;;;;;;;4.57;1.20;;;;;;;47.74;8.39;97844.78;6256101;28;20048;-68
2023/08/13 06:16:44;;;;;;;1.85;1.00;;;;;;;48.56;8.07;97851.81;6245151;28;20431;-69
2023/08/13 06:19:50;;;;;;;4.70;1.33;;;;;;;48.65;7.81;97844.25;6255406;28;20056;-69
2023/08/13 06:22:55;;;;;;;2.83;1.05;;;;;;;47.63;8.15;97827.50;6259495;28;20427;-68
2023/08/13 06:25:59;;;;;;;7.18;1.52;;;;;;;47.87;7.90;97829.94;6255806;28;20136;-69
2023/08/13 06:29:06;;;;;;;3.78;1.35;;;;;;;48.90;7.31;97834.31;6257455;28;20424;-69
2023/08/13 06:32:12;;;;;;;3.75;1.02;;;;;;;49.49;7.09;97835.78;6261841;28;20416;-68
2023/08/13 06:35:17;;;;;;;1.98;1.10;;;;;;;49.91;7.12;97838.88;6252136;28;20041;-69
2023/08/13 06:38:23;;;;;;;1.88;1.10;;;;;;;50.18;6.72;97835.66;6253783;28;20512;-68
2023/08/13 06:41:29;;;;;;;6.25;1.38;;;;;;;50.31;6.48;97831.84;6250774;28;20129;-67
2023/08/13 06:44:33;;;;;;;4.55;1.83;;;;;;;49.57;6.63;97823.78;6263045;28;20049;-69
2023/08/13 06:47:40;;;;;;;4.07;1.67;;;;;;;48.83;6.97;97828.34;6252827;28;20509;-68
2023/08/13 06:50:48;;;;;;;4.72;1.77;;;;;;;48.45;7.06;97822.50;6257223;28;20051;-67
2023/08/13 06:53:53;;;;;;;3.88;1.17;;;;;;;48.97;7.09;97822.63;6254884;28;20060;-68
2023/08/13 06:56:59;;;;;;;5.13;1.70;;;;;;;48.44;6.99;97818.91;6250193;28;20068;-68
2023/08/13 07:00:03;;;;;;;6.85;2.00;;;;;;;47.31;7.82;97806.22;6256751;28;20044;-69
2023/08/13 07:03:11;;;;;;;6.03;1.95;;;;;;;46.83;8.07;97812.34;6251567;28;20123;-69
2023/08/13 07:06:15;;;;;;;4.68;1.60;;;;;;;47.99;7.43;97805.06;6259990;28;20063;-69
2023/08/13 07:09:22;;;;;;;3.25;1.70;;;;;;;49.41;7.01;97813.13;6249075;28;20051;-67
2023/08/13 07:12:26;;;;;;;2.65;0.80;;;;;;;50.74;5.97;97808.41;6255737;28;20488;-67
2023/08/13 07:15:32;;;;;;;4.00;1.13;;;;;;;51.39;5.50;97808.09;6258719;28;20041;-68
2023/08/13 07:18:37;;;;;;;0.80;0.70;;;;;;;51.74;5.45;97810.53;6260549;28;20033;-69
2023/08/13 07:21:43;;;;;;;2.47;1.45;;;;;;;49.99;5.62;97810.06;6261030;28;20067;-69
2023/08/13 07:24:48;;;;;;;2.28;1.20;;;;;;;48.85;6.04;97798.13;6262731;28;20063;-68
2023/08/13 07:27:54;;;;;;;5.00;1.38;;;;;;;48.51;6.59;97799.72;6260900;28;20075;-67
2023/08/13 07:30:59;;;;;;;2.97;0.80;;;;;;;48.52;6.19;97801.34;6254354;28;20228;-68
2023/08/13 07:34:05;;;;;;;2.67;0.98;;;;;;;48.89;6.52;97799.13;6255363;28;20440;-68
2023/08/13 07:37:10;;;;;;;3.47;1.85;;;;;;;48.85;6.33;97798.13;6261284;28;20037;-67
2023/08/13 07:40:16;;;;;;;4.35;1.20;;;;;;;47.32;7.07;97788.38;6244678;28;20049;-67
2023/08/13 07:43:20;;;;;;;4.00;1.00;;;;;;;47.35;6.97;97787.75;6256003;28;20071;-67
2023/08/13 07:46:25;;;;;;;4.05;1.00;;;;;;;46.96;7.10;97784.47;6261414;28;20037;-68
2023/08/13 07:49:30;;;;;;;2.47;1.02;;;;;;;47.15;6.81;97775.97;6259223;28;20448;-67
2023/08/13 07:52:35;;;;;;;2.40;1.20;;;;;;;47.45;6.96;97770.81;6254155;28;20513;-68
2023/08/13 07:55:40;;;;;;;3.35;1.33;;;;;;;47.71;6.67;97770.13;6257871;28;20459;-68
2023/08/13 07:58:46;;;;;;;2.08;1.00;;;;;;;48.00;6.64;97773.22;6261939;28;20412;-68
2023/08/13 08:01:50;;;;;;;1.98;0.75;;;;;;;49.00;5.81;97766.91;6256268;28;20537;-68
2023/08/13 08:04:56;;;;;;;2.90;0.77;;;;;;;49.96;6.05;97768.75;6253550;28;20145;-67
2023/08/13 08:08:00;;;;;;;6.53;1.42;;;;;;;50.36;5.59;97765.63;6259359;28;20508;-67
2023/08/13 08:11:06;;;;;;;1.85;0.73;;;;;;;50.48;5.92;97771.28;6262259;28;20475;-67
2023/08/13 08:14:11;;;;;;;4.63;0.88;;;;;;;50.01;5.74;97768.56;6260878;28;20041;-69
2023/08/13 08:17:15;;;;;;;3.72;1.05;;;;;;;49.89;6.34;97764.47;6255677;28;20045;-69
2023/08/13 08:20:20;;;;;;;1.40;0.60;;;;;;;50.14;5.81;97750.75;6254544;28;20523;-70
2023/08/13 08:23:26;;;;;;;5.93;1.75;;;;;;;48.44;6.16;97743.50;6256957;28;20045;-68
2023/08/13 08:26:31;;;;;;;4.20;2.22;;;;;;;47.00;6.76;97740.13;6249189;28;20057;-68
2023/08/13 08:29:36;;;;;;;5.30;1.58;;;;;;;47.17;7.09;97739.44;6224784;28;20153;-68
2023/08/13 08:32:39;;;;;;;3.85;1.00;;;;;;;47.95;6.75;97742.69;6230255;28;20084;-67
2023/08/13 08:35:45;;;;;;;4.97;1.27;;;;;;;47.97;6.33;97740.41;6233474;28;20150;-68
2023/08/13 08:38:50;;;;;;;2.67;1.13;;;;;;;47.42;6.79;97729.59;6236850;28;20143;-68
2023/08/13 08:41:57;;;;;;;2.22;0.95;;;;;;;47.83;6.56;97722.94;6231801;28;20041;-68
2023/08/13 08:45:02;;;;;;;3.50;1.05;;;;;;;48.53;6.62;97735.19;6231175;28;20041;-68
2023/08/13 08:48:10;;;;;;;3.50;1.00;;;;;;;48.70;6.38;97728.78;6231315;28;20129;-67
2023/08/13 08:51:14;;;;;;;2.72;0.85;;;;;;;48.16;6.56;97728.16;6236049;28;20046;-67
2023/08/13 08:54:18;;;;;;;3.75;0.77;;;;;;;48.19;6.26;97733.13;6239114;28;20033;-67
2023/08/13 08:57:22;;;;;;;3.05;0.80;;;;;;;47.80;6.20;97729.19;6232661;28;20111;-66
2023/08/13 09:00:26;;;;;;;3.15;0.93;;;;;;;47.10;6.46;97728.72;6233239;28;20128;-68
2023/08/13 09:03:30;;;;;;;2.55;0.90;;;;;;;47.18;6.57;97716.81;6233453;28;20175;-67
2023/08/13 09:06:59;;;;;;;1.65;0.77;;;;;;;47.44;7.00;97716.19;6225405;28;20068;-66
2023/08/13 09:10:06;;;;;;;2.50;0.80;;;;;;;47.52;6.33;97711.78;6238041;28;20065;-68
2023/08/13 09:13:11;;;;;;;1.65;0.82;;;;;;;47.38;6.42;97714.66;6231733;28;20049;-67
2023/08/13 09:16:14;;;;;;;3.20;0.68;;;;;;;46.90;6.99;97710.53;6235946;28;20033;-67
2023/08/13 09:19:19;;;;;;;1.73;0.85;;;;;;;47.34;6.87;97706.09;6235214;28;20038;-67
2023/08/13 09:22:23;;;;;;;2.83;0.63;;;;;;;47.40;6.45;97709.59;6228449;28;20037;-68
2023/08/13 09:25:29;;;;;;;1.08;0.60;;;;;;;46.88;6.91;97710.00;6232282;28;20120;-69
2023/08/13 09:28:34;;;;;;;3.83;1.10;;;;;;;46.44;6.97;97705.19;6229646;28;20521;-67
2023/08/13 09:31:41;;;;;;;3.03;1.30;;;;;;;45.98;7.01;97698.66;6230902;28;20128;-67
2023/08/13 09:34:46;;;;;;;1.55;1.10;;;;;;;45.88;7.29;97699.63;6230731;28;20136;-66
2023/08/13 09:37:51;;;;;;;2.47;0.93;;;;;;;46.09;7.51;97683.41;6255222;28;20064;-67
2023/08/13 09:40:56;;;;;;;4.78;0.90;;;;;;;46.25;7.17;97674.69;6201415;28;20067;-69
2023/08/13 09:44:08;;;;;;;3.20;1.00;;;;;;;45.64;7.44;97676.81;6236433;28;20128;-67
2023/08/13 09:47:17;;;;;;;1.88;1.10;;;;;;;45.10;7.45;97681.91;6212164;28;20136;-68
2023/08/13 09:50:25;;;;;;;3.92;1.30;;;;;;;44.66;7.65;97674.00;6228402;28;20037;-66
2023/08/13 09:53:33;;;;;;;4.07;1.17;;;;;;;44.99;7.56;97667.38;6237482;28;20045;-73
2023/08/13 09:56:41;;;;;;;1.60;0.90;;;;;;;45.29;7.14;97665.19;6229777;28;20128;-73
2023/08/13 09:59:47;;;;;;;1.90;0.88;;;;;;;45.30;7.37;97666.84;6234915;28;20136;-72
2023/08/13 10:02:53;;;;;;;3.08;1.20;;;;;;;43.98;7.77;97661.34;6223856;28;20037;-72
2023/08/13 10:05:58;;;;;;;9.68;1.75;;;;;;;43.07;8.40;97655.63;6237329;28;20061;-76
2023/08/13 10:09:03;;;;;;;3.92;1.30;;;;;;;42.38;8.57;97648.09;6233820;28;20045;-76
2023/08/13 10:12:10;;;;;;;4.28;1.30;;;;;;;41.54;8.97;97637.97;6230419;28;20111;-72
2023/08/13 10:15:14;;;;;;;1.83;1.00;;;;;;;41.74;8.55;97637.88;6212507;28;20041;-73
2023/08/13 10:18:21;;;;;;;3.95;0.80;;;;;;;42.35;8.08;97634.84;6217976;28;20048;-73
2023/08/13 10:21:39;;;;;;;2.67;1.27;;;;;;;41.99;8.37;97625.91;6239597;28;20104;-81
2023/08/13 10:24:49;;;;;;;3.28;0.93;;;;;;;41.48;8.54;97632.44;6216936;28;20144;-77
2023/08/13 10:27:56;;;;;;;5.30;3.50;;;;;;;41.48;8.61;97615.06;6209764;28;20085;-77
2023/08/13 10:31:25;;;;;;;5.45;2.10;;;;;;;42.17;8.72;97628.00;6237532;28;20424;-81
2023/08/13 10:34:46;;;;;;;1.35;0.85;;;;;;;42.42;8.64;97622.63;6234196;28;20547;-74
2023/08/13 10:37:57;;;;;;;1.48;0.85;;;;;;;42.74;8.02;97628.47;6215043;28;20129;-74
2023/08/13 10:41:03;;;;;;;2.40;1.00;;;;;;;42.89;7.89;97616.47;6240275;28;20516;-71
2023/08/13 10:44:33;;;;;;;2.65;0.80;;;;;;;42.59;8.44;97615.56;6241287;28;20049;-71
2023/08/13 10:48:00;;;;;;;4.07;1.35;;;;;;;41.22;8.86;97605.97;6239942;28;20538;-71
2023/08/13 10:51:04;;;;;;;1.20;0.70;;;;;;;40.91;8.81;97606.00;6232333;28;20045;-74
2023/08/13 10:54:10;;;;;;;3.90;1.67;;;;;;;40.26;9.09;97599.34;6235331;28;20625;-76
2023/08/13 10:57:15;;;;;;;2.95;1.20;;;;;;;39.54;9.21;97601.81;6234964;28;20140;-71
2023/08/13 11:00:24;;;;;;;3.53;2.05;;;;;;;39.40;9.69;97598.72;6238226;28;20132;-71
2023/08/13 11:03:33;;;;;;;2.17;1.13;;;;;;;39.16;9.57;97595.53;6237897;28;20135;-73
2023/08/13 11:06:39;;;;;;;3.58;1.38;;;;;;;38.75;9.66;97592.47;6232089;28;20160;-72
2023/08/13 11:09:44;;;;;;;6.20;1.50;;;;;;;38.39;9.80;97583.09;6239756;28;20037;-71
2023/08/13 11:12:49;;;;;;;3.53;1.67;;;;;;;38.43;9.78;97583.41;6215849;28;20052;-72
2023/08/13 11:15:55;;;;;;;3.67;1.20;;;;;;;37.53;10.76;97581.84;6233051;28;20041;-72
2023/08/13 11:18:59;;;;;;;3.08;1.17;;;;;;;36.58;11.37;97575.50;6237347;28;20660;-71
2023/08/13 11:22:03;;;;;;;7.15;3.28;;;;;;;36.37;11.64;97587.16;6236781;28;20041;-74
2023/08/13 11:25:09;;;;;;;3.33;1.75;;;;;;;37.16;11.00;97586.28;6242004;28;20128;-71
2023/08/13 11:28:22;;;;;;;2.45;1.33;;;;;;;38.68;10.58;97588.31;6251219;28;20049;-76
2023/08/13 11:31:28;;;;;;;2.60;1.23;;;;;;;38.60;10.16;97587.69;6241659;28;20049;-73
2023/08/13 11:34:32;;;;;;;3.17;1.48;;;;;;;38.22;10.54;97582.34;6261106;28;20502;-70
2023/08/13 11:37:38;;;;;;;2.20;1.55;;;;;;;37.88;10.52;97586.13;6254309;28;20385;-73
2023/08/13 11:40:43;;;;;;;5.38;3.40;;;;;;;37.58;11.12;97583.03;6258948;28;20572;-73
2023/08/13 11:43:59;;;;;;;4.72;1.63;;;;;;;36.85;11.43;97577.56;6263596;28;20135;-73
2023/08/13 11:47:06;;;;;;;3.42;1.50;;;;;;;36.36;11.64;97572.66;6258385;28;20040;-72
2023/08/13 11:50:23;;;;;;;4.55;2.20;;;;;;;36.11;12.37;97570.28;6246290;28;20104;-72
2023/08/13 11:53:27;;;;;;;4.13;1.95;;;;;;;36.00;12.27;97568.41;6260059;28;20127;-69
2023/08/13 11:56:32;;;;;;;2.53;1.20;;;;;;;35.74;12.64;97565.19;6247367;28;20201;-71
2023/08/13 11:59:37;;;;;;;4.47;1.65;;;;;;;35.49;12.66;97570.13;6259333;28;20132;-68
2023/08/13 12:02:43;;;;;;;2.30;1.35;;;;;;;35.22;12.88;97567.09;6244384;28;20124;-71
2023/08/13 12:05:51;;;;;;;2.30;1.40;;;;;;;35.02;13.45;97572.94;6264908;28;20037;-71
2023/08/13 12:08:56;;;;;;;3.13;1.10;;;;;;;34.53;13.66;97564.06;6263950;28;20096;-72
2023/08/13 12:12:00;;;;;;;7.30;1.85;;;;;;;34.21;13.92;97556.19;6261745;28;20144;-68
2023/08/13 12:15:04;;;;;;;3.95;1.30;;;;;;;34.02;13.96;97558.09;6262185;28;20503;-69
2023/08/13 12:18:09;;;;;;;3.47;1.45;;;;;;;33.73;13.95;97554.34;6260350;28;20082;-68
2023/08/13 12:21:13;;;;;;;7.07;1.60;;;;;;;33.61;14.38;97550.72;6263421;28;20072;-69
2023/08/13 12:24:18;;;;;;;5.15;1.85;;;;;;;33.72;14.05;97552.69;6256910;28;20499;-70
2023/08/13 12:27:23;;;;;;;4.25;1.52;;;;;;;33.79;13.83;97555.31;6267237;28;20131;-70
2023/08/13 12:30:28;;;;;;;3.72;2.00;;;;;;;33.78;13.85;97557.22;6260443;28;20092;-72
2023/08/13 12:33:32;;;;;;;4.07;1.63;;;;;;;33.83;14.47;97551.88;6241676;28;20048;-71
2023/08/13 12:36:36;;;;;;;2.92;1.67;;;;;;;33.83;14.78;97554.63;6259882;28;20067;-68
2023/08/13 12:39:42;;;;;;;2.35;1.33;;;;;;;33.45;14.86;97558.44;6258385;28;20139;-68
2023/08/13 12:42:47;;;;;;;6.32;2.33;;;;;;;32.91;15.48;97557.34;6258498;28;20091;-68
2023/08/13 12:45:52;;;;;;;3.22;1.88;;;;;;;32.55;15.81;97548.03;6257167;28;20202;-68
2023/08/13 12:48:56;;;;;;;5.00;1.60;;;;;;;32.37;15.77;97550.69;6259925;28;20536;-68
2023/08/13 12:52:00;;;;;;;6.22;2.00;;;;;;;32.37;15.77;97550.69;6261259;28;20155;-69
2023/08/13 12:55:04;;;;;;;5.55;2.08;;;;;;;32.36;15.93;97549.84;6263774;28;20083;-69
2023/08/13 12:58:08;;;;;;;4.82;1.85;;;;;;;32.36;15.96;97538.97;6263972;28;20077;-68
2023/08/13 13:01:13;;;;;;;3.78;1.63;;;;;;;32.33;15.57;97544.00;6259232;28;20191;-69
2023/08/13 13:04:18;;;;;;;4.35;1.67;;;;;;;32.13;15.71;97539.56;6254322;28;20135;-68
2023/08/13 13:07:23;;;;;;;4.22;1.80;;;;;;;31.91;15.91;97540.97;6263246;28;20622;-70
2023/08/13 13:10:28;;;;;;;2.67;1.27;;;;;;;31.51;16.47;97535.72;6260505;28;20124;-69
2023/08/13 13:13:33;;;;;;;5.75;2.38;;;;;;;31.08;16.91;97537.13;6265103;28;20530;-68
2023/08/13 13:16:38;;;;;;;3.58;1.80;;;;;;;30.74;17.40;97540.06;6258659;28;20048;-68
2023/08/13 13:19:43;;;;;;;4.45;2.15;;;;;;;30.37;18.00;97540.53;6259401;28;20198;-67
2023/08/13 13:22:48;;;;;;;5.38;1.77;;;;;;;30.13;18.33;97533.81;6257444;28;20183;-69
2023/08/13 13:25:53;;;;;;;3.92;1.95;;;;;;;29.83;18.40;97538.78;6254625;28;20198;-70
2023/08/13 13:28:57;;;;;;;5.57;2.42;;;;;;;29.57;18.54;97533.25;6236417;28;20533;-69
2023/08/13 13:32:01;;;;;;;22.92;14.90;;;;;;;29.37;18.74;97536.75;6236487;28;20515;-70
2023/08/13 13:35:07;;;;;;;16.50;9.07;;;;;;;29.20;18.86;97541.66;6227271;28;20180;-70
2023/08/13 13:38:11;;;;;;;7.53;4.22;;;;;;;29.04;19.15;97540.13;6224019;28;20470;-67
2023/08/13 13:41:16;;;;;;;5.10;3.03;;;;;;;28.86;19.46;97535.22;6228369;28;20046;-69
2023/08/13 13:44:21;;;;;;;7.57;2.95;;;;;;;28.77;19.63;97535.56;6228437;28;20038;-73
2023/08/13 13:47:26;;;;;;;27.50;16.73;;;;;;;28.71;19.53;97533.66;6231972;28;20171;-68
2023/08/13 13:50:30;;;;;;;13.15;8.48;;;;;;;28.56;19.96;97521.06;6231926;28;20128;-69
2023/08/13 13:53:35;;;;;;;11.38;4.50;;;;;;;28.45;19.65;97521.63;6236083;28;20121;-68
2023/08/13 13:56:39;;;;;;;6.90;3.42;;;;;;;28.45;19.53;97529.75;6234175;28;20084;-68
2023/08/13 13:59:45;;;;;;;6.90;3.03;;;;;;;28.52;19.54;97525.19;6233753;28;20037;-68
2023/08/13 14:02:49;;;;;;;12.20;2.58;;;;;;;28.51;19.75;97525.41;6231330;28;20089;-68
2023/08/13 14:05:54;;;;;;;4.20;2.08;;;;;;;28.10;20.53;97529.63;6231698;28;20045;-67
2023/08/13 14:09:00;;;;;;;3.22;1.85;;;;;;;27.91;20.77;97530.25;6235290;28;20068;-68
2023/08/13 14:12:04;;;;;;;3.10;1.48;;;;;;;27.73;20.99;97531.50;6226977;28;20081;-69
2023/08/13 14:15:07;;;;;;;2.80;1.50;;;;;;;27.50;21.46;97528.97;6231723;28;20049;-68
2023/08/13 14:18:12;;;;;;;2.13;1.50;;;;;;;27.34;21.64;97531.06;6239199;28;20084;-68
2023/08/13 14:21:17;;;;;;;11.02;6.40;;;;;;;27.18;21.96;97530.28;6233727;28;20046;-69
2023/08/13 14:24:21;;;;;;;4.13;2.60;;;;;;;27.04;21.78;97531.09;6221610;28;20045;-73
2023/08/13 14:27:26;;;;;;;3.30;1.45;;;;;;;26.90;22.14;97529.25;6249072;28;20057;-70
2023/08/13 14:30:31;;;;;;;3.33;1.35;;;;;;;26.76;22.12;97534.44;6243322;28;20048;-69
2023/08/13 14:33:38;;;;;;;2.75;1.08;;;;;;;26.63;22.70;97539.66;6264883;28;20500;-68
2023/08/13 14:36:42;;;;;;;2.63;1.48;;;;;;;26.46;22.75;97532.72;6260702;28;20056;-76